Latest Weather Observations for Point Perpendicular

IDN60801

Issued at 8:05 pm EDT Sunday 26 October 2014 (issued every 30 minutes, with the page automatically refreshed every 10 minutes)

About weather observations | Map of weather stations | Latest weather observations for NSW | Other Formats
Station Details ID: 068151 Name: POINT PERPENDICULAR AWS Lat: -35.09 Lon: 150.80 Height: 85.0 m
Data from the previous 72 hours. | See also: Recent months at Point Perpendicular
Date/Time
EDT
Temp
°C
App
Temp
°C
Dew
Point
Rel
Hum
%
Delta-T
°C
Wind Press
QNH
hPa
Press
MSL
hPa
Rain
since 9 am
mm
Dir
 
Spd
km/h
Gust
km/h
Spd
kts
Gust
kts
26/08:00pm 17.8 16.9 15.8 88 1.2 S 15 26 8 14 1013.2 1013.0 0.0
26/07:30pm 17.8 16.7 16.3 91 0.9 S 17 24 9 13 1012.8 1012.6 0.0
26/07:00pm 17.9 16.8 16.4 91 0.9 S 17 28 9 15 1012.5 1012.3 0.0
26/06:30pm 18.1 17.1 16.6 91 0.9 S 17 26 9 14 1011.9 1011.7 0.0
26/06:00pm 18.2 16.8 16.5 90 1.0 S 19 28 10 15 1011.6 1011.4 0.0
26/05:30pm 18.4 16.9 16.7 90 1.0 S 20 28 11 15 1010.9 1010.8 0.0
26/05:00pm 18.8 17.5 16.9 89 1.2 S 19 30 10 16 1010.7 1010.6 0.0
26/04:30pm 19.1 17.8 17.2 89 1.2 S 20 28 11 15 1010.3 1010.2 0.0
26/04:00pm 19.6 18.5 17.2 86 1.5 S 19 28 10 15 1010.3 1010.2 0.0
26/03:30pm 19.6 18.1 17.6 88 1.2 S 22 32 12 17 1009.8 1009.7 0.0
26/03:00pm 19.6 18.4 17.6 88 1.2 S 20 32 11 17 1009.9 1009.8 0.0
26/02:30pm 19.9 18.9 17.5 86 1.5 S 19 30 10 16 1009.9 1009.8 0.0
26/02:00pm 19.6 18.4 17.4 87 1.3 S 20 33 11 18 1010.1 1010.0 0.0
26/01:30pm 19.9 18.0 17.7 87 1.4 S 24 35 13 19 1010.3 1010.2 0.0
26/01:00pm 19.5 18.3 17.1 86 1.5 S 19 32 10 17 1010.2 1010.1 0.0
26/12:30pm 19.0 17.2 17.0 88 1.2 S 22 30 12 16 1010.3 1010.2 0.0
26/12:00pm 19.2 17.8 17.0 87 1.3 S 20 28 11 15 1010.3 1010.2 0.0
26/11:30am 18.4 16.8 16.6 89 1.1 S 20 28 11 15 1010.5 1010.4 0.0
26/11:00am 18.2 17.1 16.4 89 1.1 S 17 26 9 14 1010.6 1010.5 0.0
26/10:30am 18.3 18.0 16.5 89 1.1 S 13 22 7 12 1010.5 1010.4 0.0
26/10:00am 18.4 19.1 17.1 92 0.8 S 9 17 5 9 1010.8 1010.7 0.0
26/09:30am 18.0 19.4 17.8 99 0.1 SW 7 11 4 6 1010.8 1010.7 0.0
26/09:00am 17.7 19.0 17.5 99 0.1 WSW 7 11 4 6 1010.8 1010.7 0.8
26/08:30am 17.5 18.7 17.3 99 0.1 WSW 7 11 4 6 1010.9 1010.8 0.8
26/08:00am 17.4 19.1 17.2 99 0.1 W 4 7 2 4 1010.7 1010.6 0.8
26/07:30am 17.7 20.3 17.5 99 0.1 CALM 0 0 0 0 1010.6 1010.5 0.8
26/07:00am 17.3 18.6 17.1 99 0.1 WSW 6 9 3 5 1010.8 1010.7 0.8
26/06:30am 17.4 19.9 17.2 99 0.1 CALM 0 0 0 0 1010.7 1010.6 0.8
26/06:00am 17.4 19.9 17.2 99 0.1 SSW 0 0 0 0 1010.8 1010.7 0.8
26/05:30am 17.3 19.7 17.1 99 0.1 CALM 0 0 0 0 1010.8 1010.7 0.8
26/05:00am 17.3 19.0 17.1 99 0.1 SSW 4 6 2 3 1010.9 1010.8 0.8
26/04:30am 17.3 19.7 17.1 99 0.1 CALM 0 0 0 0 1011.0 1010.9 0.8
26/04:00am 17.3 19.7 17.1 99 0.1 CALM 0 0 0 0 1011.6 1011.4 0.8
26/03:30am 17.3 18.6 17.1 99 0.1 S 6 7 3 4 1012.1 1011.9 0.8
26/03:00am 17.2 18.3 17.0 99 0.1 SSE 7 9 4 5 1012.2 1012.0 0.8
26/02:30am 17.2 18.3 17.0 99 0.1 SSE 7 9 4 5 1013.0 1012.8 0.8
26/02:00am 17.2 18.5 17.0 99 0.1 SSE 6 9 3 5 1013.4 1013.2 0.8
26/01:30am 17.2 18.3 17.0 99 0.1 SSE 7 11 4 6 1013.6 1013.4 0.8
26/01:00am 17.1 17.7 16.8 98 0.2 SSE 9 13 5 7 1014.0 1013.8 0.8
26/12:30am 17.0 19.3 16.7 98 0.2 CALM 0 4 0 2 1014.5 1014.3 0.8
26/12:00am 16.9 18.8 16.6 98 0.2 SE 2 9 1 5 1014.9 1014.7 0.8
 
Date/Time
EDT
Temp
°C
App
Temp
°C
Dew
Point
Rel
Hum
%
Delta-T
°C
Wind Press
QNH
hPa
Press
MSL
hPa
Rain
since 9 am
mm
Dir
 
Spd
km/h
Gust
km/h
Spd
kts
Gust
kts
25/11:30pm 16.9 19.1 16.6 98 0.2 CALM 0 0 0 0 1015.8 1015.6 0.8
25/11:00pm 16.8 18.6 16.5 98 0.2 E 2 9 1 5 1015.9 1015.7 0.8
25/10:30pm 17.1 18.0 16.6 97 0.3 SW 7 13 4 7 1017.4 1017.3 0.6
25/10:00pm 17.0 18.1 16.7 98 0.2 SSW 6 7 3 4 1016.2 1016.0 0.6
25/09:30pm 17.0 17.9 16.7 98 0.2 SW 7 15 4 8 1016.6 1016.4 0.6
25/09:00pm 17.2 18.3 17.0 99 0.1 SW 7 9 4 5 1016.9 1016.8 0.6
25/08:30pm 17.2 18.3 17.0 99 0.1 W 7 11 4 6 1016.3 1016.1 0.6
25/08:00pm 17.1 18.3 16.9 99 0.1 WNW 6 7 3 4 1015.8 1015.6 0.6
25/07:30pm 17.2 19.2 17.0 99 0.1 W 2 7 1 4 1015.6 1015.4 0.6
25/07:00pm 17.1 17.7 16.9 99 0.1 SE 9 17 5 9 1015.0 1014.8 0.6
25/06:30pm 17.2 17.1 16.9 98 0.2 ESE 13 20 7 11 1014.6 1014.4 0.6
25/06:00pm 17.5 16.0 16.7 95 0.5 SSW 20 32 11 17 1016.4 1016.2 0.4
25/05:30pm 17.7 18.2 16.6 93 0.7 S 9 15 5 8 1015.1 1014.9 0.0
25/05:00pm 17.8 17.5 16.5 92 0.8 S 13 22 7 12 1015.1 1014.9 0.0
25/04:30pm 18.0 17.0 16.5 91 0.9 S 17 26 9 14 1015.0 1014.8 0.0
25/04:00pm 18.1 17.5 16.6 91 0.9 S 15 24 8 13 1015.1 1014.9 0.0
25/03:30pm 18.3 17.3 16.5 89 1.1 S 17 26 9 14 1014.8 1014.6 0.0
25/03:00pm 18.8 17.3 16.8 88 1.2 S 20 28 11 15 1014.9 1014.7 0.0
25/02:30pm 18.8 16.8 16.4 86 1.4 SSE 22 32 12 17 1015.1 1014.9 0.0
25/02:00pm 19.1 17.6 16.7 86 1.4 SSE 20 32 11 17 1015.5 1015.3 0.0
25/01:30pm 19.1 16.8 16.7 86 1.5 S 24 33 13 18 1015.7 1015.5 0.0
25/01:00pm 19.2 16.7 17.2 88 1.2 S 26 41 14 22 1015.7 1015.5 0.0
25/12:30pm 18.9 16.4 17.2 90 1.0 S 26 35 14 19 1015.6 1015.4 0.0
25/12:00pm 18.8 16.7 17.1 90 1.0 S 24 35 13 19 1016.1 1015.9 0.0
25/11:30am 18.6 15.3 16.9 90 1.0 S 30 41 16 22 1016.1 1015.9 0.0
25/11:00am 18.6 14.8 16.8 89 1.1 SSW 32 43 17 23 1016.6 1016.4 0.0
25/10:30am 18.8 15.2 16.2 85 1.6 SSW 30 44 16 24 1016.2 1016.0 0.0
25/10:00am 19.4 17.3 16.1 81 2.0 SSW 22 32 12 17 1015.9 1015.7 0.0
25/09:30am 20.1 19.1 16.7 81 2.1 SW 17 26 9 14 1015.5 1015.3 0.0
25/09:00am 20.4 20.0 17.2 82 2.0 SW 15 22 8 12 1015.7 1015.5 0.6
25/08:30am 19.4 19.8 18.1 92 0.8 WSW 13 17 7 9 1015.5 1015.3 0.6
25/08:00am 18.1 17.6 17.8 98 0.2 SSW 17 24 9 13 1015.6 1015.4 0.6
25/07:30am 17.9 18.5 17.7 99 0.1 SSW 11 17 6 9 1015.1 1014.9 0.6
25/07:00am 18.1 19.2 17.9 99 0.1 SW 9 13 5 7 1014.8 1014.6 0.6
25/06:30am 18.4 21.4 18.4 100 0.0 CALM 0 6 0 3 1014.6 1014.4 0.6
25/06:00am 18.0 19.0 17.8 99 0.1 N 9 15 5 8 1014.2 1014.0 0.6
25/05:30am 18.2 18.2 18.0 99 0.1 N 15 24 8 13 1013.4 1013.2 0.6
25/05:00am 18.3 17.5 18.1 99 0.1 N 19 26 10 14 1012.8 1012.6 0.6
25/04:30am 18.5 16.9 18.3 99 0.1 N 24 33 13 18 1012.3 1012.1 0.6
25/04:00am 18.6 17.4 18.4 99 0.1 NNE 22 32 12 17 1012.2 1012.0 0.6
25/03:30am 18.7 16.8 18.5 99 0.1 NNE 26 35 14 19 1011.9 1011.7 0.6
25/03:00am 18.7 16.4 18.5 99 0.1 NNE 28 43 15 23 1011.7 1011.5 0.6
25/02:30am 18.7 16.4 18.5 99 0.1 NNE 28 43 15 23 1011.7 1011.5 0.6
25/02:00am 18.7 16.4 18.5 99 0.1 N 28 39 15 21 1012.0 1011.8 0.6
25/01:30am 18.7 16.0 18.4 98 0.2 N 30 44 16 24 1012.0 1011.8 0.6
25/01:00am 18.9 16.9 18.2 96 0.4 NNE 26 39 14 21 1012.2 1012.0 0.6
25/12:30am 19.0 16.2 18.3 96 0.4 N 30 43 16 23 1012.4 1012.2 0.6
25/12:12am 19.0 15.9 18.5 97 0.3 NNE 32 52 17 28 1012.0 1011.8 0.6
25/12:00am 18.9 16.5 18.2 96 0.4 N 28 35 15 19 1011.9 1011.7 0.6
 
Date/Time
EDT
Temp
°C
App
Temp
°C
Dew
Point
Rel
Hum
%
Delta-T
°C
Wind Press
QNH
hPa
Press
MSL
hPa
Rain
since 9 am
mm
Dir
 
Spd
km/h
Gust
km/h
Spd
kts
Gust
kts
24/11:30pm 18.9 17.9 17.9 94 0.6 N 20 28 11 15 1012.3 1012.1 0.6
24/11:00pm 19.7 18.0 18.0 90 1.1 NNE 24 33 13 18 1011.5 1011.3 0.6
24/10:30pm 19.5 17.3 18.7 95 0.5 N 28 41 15 22 1011.4 1011.2 0.6
24/10:05pm 19.1 15.8 18.3 95 0.5 N 33 52 18 28 1012.2 1012.0 0.6
24/10:00pm 19.3 16.2 18.5 95 0.5 N 32 48 17 26 1012.2 1012.0 0.6
24/09:52pm 19.2 15.4 18.2 94 0.6 NNE 35 46 19 25 1011.7 1011.5 0.6
24/09:30pm 19.5 18.3 18.5 94 0.6 NNW 22 44 12 24 1013.7 1013.5 0.4
24/09:25pm 19.4 17.5 18.6 95 0.5 NNW 26 33 14 18 1013.8 1013.6 0.4
24/09:23pm 19.3 15.3 18.6 96 0.4 NNE 37 57 20 31 1013.9 1013.7 0.4
24/09:12pm 19.1 16.0 18.4 96 0.4 NNE 32 52 17 28 1011.8 1011.6 0.4
24/09:00pm 19.1 15.8 18.3 95 0.5 NNE 33 46 18 25 1012.5 1012.3 0.4
24/08:30pm 19.8 16.5 17.9 89 1.2 NNE 32 46 17 25 1012.5 1012.3 0.0
24/08:05pm 19.5 16.3 18.2 92 0.8 NNE 32 50 17 27 1012.2 1012.0 0.0
24/08:00pm 19.5 15.7 18.2 92 0.8 NNE 35 50 19 27 1012.1 1011.9 0.0
24/07:30pm 19.5 15.7 18.0 91 0.9 NNE 35 48 19 26 1011.9 1011.7 0.0
24/07:00pm 19.8 15.9 17.9 89 1.2 NNE 35 48 19 26 1011.8 1011.6 0.0
24/06:30pm 20.0 16.5 18.0 88 1.2 NNE 33 46 18 25 1011.7 1011.5 0.0
24/06:00pm 20.2 16.4 18.0 87 1.4 NNE 35 52 19 28 1011.8 1011.6 0.0
24/05:30pm 20.4 16.1 17.8 85 1.6 NNE 37 52 20 28 1011.9 1011.7 0.0
24/05:00pm 21.1 17.1 17.7 81 2.1 NNE 35 57 19 31 1011.9 1011.7 0.0
24/04:31pm 21.2 16.5 17.8 81 2.1 NNE 39 57 21 31 1012.3 1012.1 0.0
24/04:30pm 21.2 16.5 17.8 81 2.1 NNE 39 50 21 27 1012.3 1012.1 0.0
24/04:00pm 22.3 18.0 18.7 80 2.3 NNE 39 52 21 28 1012.7 1012.5 0.0
24/03:50pm 21.9 17.1 18.3 80 2.3 NNE 41 61 22 33 1012.8 1012.6 0.0
24/03:30pm 22.3 17.8 18.3 78 2.5 NNE 39 52 21 28 1013.1 1012.9 0.0
24/03:02pm 22.5 18.7 18.1 76 2.8 NNE 35 54 19 29 1013.4 1013.2 0.0
24/03:00pm 22.4 18.2 18.0 76 2.8 NNE 37 54 20 29 1013.5 1013.3 0.0
24/02:57pm 22.2 18.3 17.8 76 2.7 NNE 35 54 19 29 1013.6 1013.4 0.0
24/02:30pm 22.2 18.2 18.4 79 2.4 NNE 37 52 20 28 1014.1 1013.9 0.0
24/02:00pm 22.4 18.0 18.4 78 2.5 NNE 39 54 21 29 1014.5 1014.3 0.0
24/01:30pm 22.2 17.0 18.4 79 2.4 NNE 43 54 23 29 1014.8 1014.6 0.0
24/01:15pm 22.6 18.4 19.0 80 2.3 NNE 39 57 21 31 1015.3 1015.1 0.0
24/01:00pm 22.2 19.0 18.6 80 2.3 NNE 33 50 18 27 1015.6 1015.4 0.0
24/12:55pm 22.4 18.8 18.6 79 2.4 NNE 35 54 19 29 1015.6 1015.4 0.0
24/12:30pm 22.4 18.5 18.8 80 2.3 NNE 37 50 20 27 1016.3 1016.1 0.0
24/12:00pm 21.9 17.6 17.9 78 2.5 NNE 37 52 20 28 1017.2 1017.1 0.0
24/11:30am 22.6 18.8 18.2 76 2.8 NNE 35 50 19 27 1017.7 1017.6 0.0
24/11:00am 22.0 18.6 17.8 77 2.6 NNE 32 48 17 26 1018.2 1018.1 0.0
24/10:55am 21.8 18.8 17.8 78 2.5 NNE 30 48 16 26 1018.3 1018.2 0.0
24/10:30am 20.9 17.7 18.1 84 1.7 NE 32 46 17 25 1018.5 1018.4 0.0
24/10:00am 19.7 17.7 18.2 91 0.9 NE 26 35 14 19 1018.9 1018.8 0.0
24/09:30am 20.8 18.8 18.2 85 1.6 NNE 26 39 14 21 1019.2 1019.1 0.0
24/09:00am 19.6 18.1 17.7 89 1.2 NE 22 33 12 18 1019.3 1019.2 0.0
24/08:30am 19.3 17.8 17.6 90 1.0 NE 22 32 12 17 1019.1 1019.0 0.0
24/08:00am 18.9 17.9 17.9 94 0.6 NE 20 32 11 17 1019.0 1018.9 0.0
24/07:30am 18.8 17.4 18.0 95 0.5 NE 22 32 12 17 1018.7 1018.6 0.0
24/07:00am 18.4 17.8 17.6 95 0.5 NE 17 24 9 13 1018.7 1018.6 0.0
24/06:30am 18.0 19.5 16.7 92 0.8 S 4 7 2 4 1019.3 1019.2 0.0
24/06:00am 17.8 17.1 16.3 91 0.9 ENE 15 26 8 14 1018.3 1018.2 0.0
24/05:30am 17.5 17.0 15.0 85 1.5 N 11 24 6 13 1017.6 1017.5 0.0
24/05:00am 17.7 17.0 15.5 87 1.3 N 13 20 7 11 1018.4 1018.3 0.0
24/04:30am 18.1 17.8 15.4 84 1.6 N 11 15 6 8 1018.9 1018.8 0.0
24/04:00am 17.6 18.9 17.1 97 0.3 NNW 6 11 3 6 1018.8 1018.7 0.0
24/03:30am 17.9 18.9 17.7 99 0.1 N 9 17 5 9 1018.5 1018.4 0.0
24/03:27am 17.9 19.2 17.6 98 0.2 N 7 13 4 7 1018.6 1018.5 0.0
24/03:00am 18.1 19.1 17.8 98 0.2 WNW 9 15 5 8 1020.6 1020.5 0.0
24/02:30am 18.2 18.5 17.9 98 0.2 NNE 13 24 7 13 1019.0 1018.9 0.0
24/02:00am 18.2 18.8 17.7 97 0.3 NNE 11 15 6 8 1019.0 1018.9 0.0
24/01:30am 17.9 18.6 17.1 95 0.5 NNE 9 13 5 7 1019.1 1019.0 0.0
24/01:00am 18.3 17.5 17.1 93 0.7 NNE 17 26 9 14 1018.7 1018.6 0.0
24/12:30am 18.0 15.5 17.2 95 0.5 NNE 26 35 14 19 1018.8 1018.7 0.0
24/12:00am 17.9 16.6 17.3 96 0.4 NNE 20 28 11 15 1019.9 1019.8 0.0
 
Date/Time
EDT
Temp
°C
App
Temp
°C
Dew
Point
Rel
Hum
%
Delta-T
°C
Wind Press
QNH
hPa
Press
MSL
hPa
Rain
since 9 am
mm
Dir
 
Spd
km/h
Gust
km/h
Spd
kts
Gust
kts
23/11:59pm 17.9 16.6 17.3 96 0.4 NNE 20 24 11 13 1019.9 1019.8 0.0
23/11:30pm 18.5 21.2 17.8 96 0.4 CALM 0 4 0 2 1022.0 1021.9 0.0
23/11:00pm 18.5 20.1 17.8 96 0.4 SE 6 9 3 5 1021.5 1021.4 0.0
23/10:30pm 18.4 20.0 17.8 96 0.4 SSW 6 9 3 5 1021.6 1021.5 0.0
23/10:00pm 18.2 20.8 17.4 95 0.5 CALM 0 0 0 0 1021.4 1021.3 0.0
23/09:30pm 18.1 19.4 17.5 96 0.4 NE 7 11 4 6 1021.3 1021.2 0.0
23/09:00pm 17.9 20.0 17.1 95 0.5 NNE 2 7 1 4 1020.6 1020.5 0.0
23/08:30pm 18.0 19.3 17.0 94 0.6 NNE 6 7 3 4 1020.1 1020.0 0.0

Other Formats:

Comma delimited format used in spreadsheet applications
http://www.bom.gov.au/fwo/IDN60801/IDN60801.95940.axf

JavaScript Object Notation format (JSON) in row-major order
http://www.bom.gov.au/fwo/IDN60801/IDN60801.95940.json